Terminal Aerodrome Forecast
Issued by NWS

Home | Current Version | Previous Version | Text Only | Print | Product List | Glossary On
Versions: 1 2 3 4 5 6 7 8 9 10 11 12 13 14 15 16 17 18 19 20 21 22 23 24 25 26 27 28 29 30
000
FTUS45 KBOI 081845 AAA
TAFTWF
TAF AMD
KTWF 081845Z 0819/0918 06006KT 3SM BR OVC003
     FM090500 14005KT 6SM BR OVC005
     FM091700 06005KT 2SM BR OVC003=

USA.gov is the U.S. government's official web portal to all federal, state and local government web resources and services.